createdAt,value
2023-11-15T00:00:15.771Z,4.20
2023-11-15T00:02:42.579Z,4.65
2023-11-15T00:05:09.573Z,5.28
2023-11-15T00:07:36.266Z,5.40
2023-11-15T00:10:05.005Z,5.20
2023-11-15T00:12:33.345Z,5.15
2023-11-15T00:15:00.248Z,5.53
2023-11-15T00:17:27.015Z,4.97
2023-11-15T00:19:54.951Z,4.63
2023-11-15T00:22:23.983Z,4.10
2023-11-15T00:24:51.228Z,3.55
2023-11-15T00:27:18.061Z,3.38
2023-11-15T00:29:44.824Z,3.38
2023-11-15T00:32:11.664Z,2.85
2023-11-15T00:34:38.391Z,3.22
2023-11-15T00:37:05.717Z,3.05
2023-11-15T00:39:32.568Z,2.70
2023-11-15T00:41:59.215Z,2.88
2023-11-15T00:44:26.140Z,3.15
2023-11-15T00:46:52.854Z,2.92
2023-11-15T00:49:19.539Z,3.65
2023-11-15T00:51:46.162Z,3.10
2023-11-15T00:54:13.084Z,3.03
2023-11-15T00:56:39.722Z,2.80
2023-11-15T00:59:06.710Z,2.95
2023-11-15T01:01:33.514Z,3.17
2023-11-15T01:04:00.382Z,2.47
2023-11-15T01:06:27.182Z,2.83
2023-11-15T01:08:58.104Z,2.75
2023-11-15T01:11:27.457Z,2.88
2023-11-15T01:13:56.912Z,3.17
2023-11-15T01:16:24.856Z,3.15
2023-11-15T01:18:54.214Z,3.05
2023-11-15T01:21:21.176Z,3.08
2023-11-15T01:23:47.895Z,3.60
2023-11-15T01:26:15.141Z,3.38
2023-11-15T01:28:42.052Z,2.67
2023-11-15T01:31:08.779Z,2.70
2023-11-15T01:33:35.601Z,2.33
2023-11-15T01:36:02.371Z,2.47
2023-11-15T01:38:30.589Z,2.92
2023-11-15T01:40:57.463Z,2.78
2023-11-15T01:43:24.989Z,2.90
2023-11-15T01:45:52.645Z,2.85
2023-11-15T01:48:19.784Z,2.80
2023-11-15T01:50:48.386Z,3.00
2023-11-15T01:53:15.904Z,2.55
2023-11-15T01:55:44.374Z,2.45
2023-11-15T01:58:11.247Z,2.30
2023-11-15T02:00:38.025Z,2.70
2023-11-15T02:03:04.948Z,2.17
2023-11-15T02:05:31.825Z,2.50
2023-11-15T02:07:58.690Z,2.50
2023-11-15T02:10:25.830Z,2.05
2023-11-15T02:12:52.588Z,1.73
2023-11-15T02:15:22.246Z,2.60
2023-11-15T02:17:49.930Z,2.40
2023-11-15T02:20:17.760Z,2.40
2023-11-15T02:22:51.787Z,2.53
2023-11-15T02:25:19.319Z,2.67
2023-11-15T02:27:46.106Z,2.55
2023-11-15T02:30:13.225Z,2.22
2023-11-15T02:32:43.013Z,2.70
2023-11-15T02:35:10.264Z,2.67
2023-11-15T02:37:37.179Z,2.95
2023-11-15T02:40:10.550Z,2.72
2023-11-15T02:42:37.531Z,2.92
2023-11-15T02:45:04.694Z,2.83
2023-11-15T02:47:31.510Z,3.03
2023-11-15T02:49:58.219Z,2.50
2023-11-15T02:52:24.925Z,2.42
2023-11-15T02:54:52.740Z,2.60
2023-11-15T02:57:19.506Z,2.58
2023-11-15T02:59:46.294Z,2.42
2023-11-15T03:02:15.437Z,2.30
2023-11-15T03:04:42.128Z,2.10
2023-11-15T03:07:08.781Z,2.03
2023-11-15T03:09:35.458Z,2.35
2023-11-15T03:12:02.421Z,2.28
2023-11-15T03:14:29.186Z,2.15
2023-11-15T03:16:55.988Z,2.10
2023-11-15T03:19:23.142Z,2.28
2023-11-15T03:21:49.820Z,2.60
2023-11-15T03:24:16.494Z,2.65
2023-11-15T03:26:43.201Z,2.53
2023-11-15T03:29:09.869Z,2.17
2023-11-15T03:31:36.601Z,2.95
2023-11-15T03:34:05.592Z,2.53
2023-11-15T03:36:33.814Z,2.80
2023-11-15T03:39:00.843Z,3.10
2023-11-15T03:41:27.575Z,3.22
2023-11-15T03:43:54.227Z,3.35
2023-11-15T03:46:20.913Z,2.97
2023-11-15T03:48:47.641Z,3.13
2023-11-15T03:51:14.332Z,2.88
2023-11-15T03:53:40.995Z,3.22
2023-11-15T03:56:09.720Z,3.25
2023-11-15T03:58:36.484Z,3.72
2023-11-15T04:01:05.446Z,3.70
2023-11-15T04:03:32.351Z,3.35
2023-11-15T04:06:01.035Z,4.03
2023-11-15T04:08:28.962Z,3.33
2023-11-15T04:10:55.736Z,3.42
2023-11-15T04:13:22.678Z,3.60
2023-11-15T04:15:49.411Z,3.45
2023-11-15T04:18:16.233Z,3.45
2023-11-15T04:20:42.974Z,3.83
2023-11-15T04:23:09.841Z,3.15
2023-11-15T04:25:36.522Z,3.90
2023-11-15T04:28:05.741Z,3.90
2023-11-15T04:30:33.024Z,4.18
2023-11-15T04:33:00.495Z,4.03
2023-11-15T04:35:27.336Z,4.78
2023-11-15T04:37:54.600Z,3.90
2023-11-15T04:40:22.081Z,4.28
2023-11-15T04:42:48.736Z,4.13
2023-11-15T04:45:15.440Z,3.72
2023-11-15T04:47:42.252Z,3.80
2023-11-15T04:50:09.592Z,4.13
2023-11-15T04:52:36.320Z,3.53
2023-11-15T04:55:03.595Z,3.97
2023-11-15T04:57:30.532Z,4.18
2023-11-15T04:59:57.440Z,3.60
2023-11-15T05:02:24.423Z,4.10
2023-11-15T05:04:53.394Z,4.50
2023-11-15T05:07:21.444Z,4.00
2023-11-15T05:09:48.168Z,3.70
2023-11-15T05:12:17.085Z,3.92
2023-11-15T05:14:44.405Z,3.80
2023-11-15T05:17:13.274Z,3.80
2023-11-15T05:19:40.371Z,3.30
2023-11-15T05:22:07.096Z,3.40
2023-11-15T05:24:34.390Z,3.70
2023-11-15T05:27:01.179Z,3.65
2023-11-15T05:29:27.884Z,4.07
2023-11-15T05:31:54.579Z,4.05
2023-11-15T05:34:21.225Z,4.07
2023-11-15T05:36:47.917Z,3.83
2023-11-15T05:39:14.694Z,3.67
2023-11-15T05:41:41.501Z,4.22
2023-11-15T05:44:08.210Z,4.38
2023-11-15T05:46:35.058Z,4.20
2023-11-15T05:49:01.887Z,3.92
2023-11-15T05:51:28.726Z,5.18
2023-11-15T05:53:55.385Z,4.65
2023-11-15T05:56:23.143Z,4.45
2023-11-15T05:58:49.844Z,5.00
2023-11-15T06:01:16.561Z,4.47
2023-11-15T06:03:43.383Z,4.97
2023-11-15T06:06:10.220Z,5.10
2023-11-15T06:08:37.987Z,5.03
2023-11-15T06:11:05.144Z,4.82
2023-11-15T06:13:32.134Z,5.20
2023-11-15T06:15:58.960Z,4.88
2023-11-15T06:18:25.729Z,5.15
2023-11-15T06:20:52.542Z,4.88
2023-11-15T06:23:19.212Z,4.93
2023-11-15T06:25:45.912Z,4.85
2023-11-15T06:28:12.650Z,4.03
2023-11-15T06:30:39.520Z,4.35
2023-11-15T06:33:06.351Z,4.22
2023-11-15T06:35:33.127Z,4.15
2023-11-15T06:38:02.446Z,3.75
2023-11-15T06:40:29.192Z,4.30
2023-11-15T06:42:55.865Z,4.22
2023-11-15T06:45:23.251Z,4.32
2023-11-15T06:47:54.990Z,3.80
2023-11-15T06:50:21.749Z,4.38
2023-11-15T06:52:48.374Z,4.00
2023-11-15T06:55:16.455Z,4.03
2023-11-15T06:57:44.870Z,3.72
2023-11-15T07:00:13.828Z,3.75
2023-11-15T07:02:42.298Z,3.60
2023-11-15T07:05:11.388Z,3.83
2023-11-15T07:07:38.649Z,4.53
2023-11-15T07:10:06.754Z,4.50
2023-11-15T07:12:37.333Z,4.25
2023-11-15T07:15:05.495Z,4.05
2023-11-15T07:17:33.182Z,4.10
2023-11-15T07:20:00.327Z,3.78
2023-11-15T07:22:27.104Z,4.47
2023-11-15T07:24:54.592Z,4.50
2023-11-15T07:27:21.215Z,4.10
2023-11-15T07:29:48.197Z,4.45
2023-11-15T07:32:15.022Z,3.85
2023-11-15T07:34:41.751Z,3.80
2023-11-15T07:37:09.241Z,4.15
2023-11-15T07:39:35.946Z,4.18
2023-11-15T07:42:03.169Z,4.20
2023-11-15T07:44:31.543Z,4.00
2023-11-15T07:47:00.010Z,3.70
2023-11-15T07:49:28.023Z,4.25
2023-11-15T07:51:54.759Z,3.70
2023-11-15T07:54:22.404Z,4.20
2023-11-15T07:56:49.190Z,4.47
2023-11-15T07:59:16.273Z,4.88
2023-11-15T08:01:47.089Z,4.22
2023-11-15T08:04:16.209Z,3.90
2023-11-15T08:06:43.639Z,4.20
2023-11-15T08:09:24.932Z,4.05
2023-11-15T08:11:56.307Z,4.47
2023-11-15T08:14:23.357Z,5.10
2023-11-15T08:16:50.724Z,5.03
2023-11-15T08:19:19.359Z,4.57
2023-11-15T08:21:46.060Z,4.63
2023-11-15T08:24:18.052Z,4.80
2023-11-15T08:26:45.477Z,3.92
2023-11-15T08:29:13.103Z,4.88
2023-11-15T08:31:39.834Z,4.72
2023-11-15T08:34:06.743Z,4.32
2023-11-15T08:36:33.713Z,4.22
2023-11-15T08:39:00.537Z,3.88
2023-11-15T08:41:27.329Z,4.10
2023-11-15T08:43:54.109Z,4.35
2023-11-15T08:46:21.325Z,3.78
2023-11-15T08:48:52.710Z,3.72
2023-11-15T08:51:20.437Z,4.22
2023-11-15T08:53:48.602Z,3.72
2023-11-15T08:56:15.483Z,4.35
2023-11-15T08:58:42.432Z,4.25
2023-11-15T09:01:10.482Z,3.95
2023-11-15T09:03:40.236Z,5.53
2023-11-15T09:06:07.573Z,16.00
2023-11-15T09:08:35.118Z,12.38
2023-11-15T09:11:01.777Z,9.45
2023-11-15T09:13:29.450Z,6.43
2023-11-15T09:15:56.182Z,6.50
2023-11-15T09:18:23.152Z,5.53
2023-11-15T09:20:50.933Z,5.80
2023-11-15T09:23:25.179Z,5.93
2023-11-15T09:26:00.665Z,6.88
2023-11-15T09:28:27.526Z,6.18
2023-11-15T09:30:54.254Z,6.50
2023-11-15T09:33:21.851Z,34.35
2023-11-15T09:35:55.012Z,18.08
2023-11-15T09:38:27.292Z,20.17
2023-11-15T09:40:54.049Z,8.95
2023-11-15T09:43:21.125Z,12.10
2023-11-15T09:45:49.324Z,8.68
2023-11-15T09:48:16.259Z,7.43
2023-11-15T09:50:49.833Z,6.47
2023-11-15T09:53:18.525Z,5.05
2023-11-15T09:55:45.193Z,5.68
2023-11-15T09:58:14.330Z,4.97
2023-11-15T10:00:41.199Z,5.60
2023-11-15T10:03:08.059Z,5.63
2023-11-15T10:05:34.907Z,5.50
2023-11-15T10:08:13.855Z,5.05
2023-11-15T10:10:44.338Z,7.50
2023-11-15T10:13:16.358Z,17.17
2023-11-15T10:15:47.518Z,4.95
2023-11-15T10:18:16.884Z,4.10
2023-11-15T10:20:44.604Z,4.80
2023-11-15T10:23:13.225Z,4.78
2023-11-15T10:25:52.390Z,3.67
2023-11-15T10:28:22.429Z,3.63
2023-11-15T10:31:06.526Z,5.60
2023-11-15T10:33:35.839Z,3.58
2023-11-15T10:36:21.019Z,2.97
2023-11-15T10:38:56.420Z,3.42
2023-11-15T10:41:25.943Z,4.15
2023-11-15T10:43:56.076Z,3.70
2023-11-15T10:46:31.221Z,3.92
2023-11-15T10:48:59.933Z,3.40
2023-11-15T10:51:42.557Z,4.43
2023-11-15T10:54:15.148Z,4.43
2023-11-15T10:56:42.854Z,5.38
2023-11-15T10:59:14.802Z,4.57
2023-11-15T11:01:42.491Z,4.30
2023-11-15T11:04:12.759Z,3.70
2023-11-15T11:06:59.027Z,4.18
2023-11-15T11:09:53.988Z,4.00
2023-11-15T11:12:24.113Z,3.92
2023-11-15T11:15:18.545Z,3.58
2023-11-15T11:17:46.888Z,7.63
2023-11-15T11:20:28.381Z,3.40
2023-11-15T11:23:23.608Z,3.40
2023-11-15T11:25:53.328Z,3.33
2023-11-15T11:28:22.557Z,3.55
2023-11-15T11:31:17.033Z,3.40
2023-11-15T11:34:09.393Z,3.05
2023-11-15T11:36:54.616Z,9.73
2023-11-15T11:39:23.813Z,3.03
2023-11-15T11:41:50.972Z,8.65
2023-11-15T11:44:19.379Z,3.70
2023-11-15T11:47:02.638Z,8.82
2023-11-15T11:49:45.644Z,2.67
2023-11-15T11:52:15.000Z,4.13
2023-11-15T11:54:41.730Z,2.88
2023-11-15T11:57:08.602Z,2.65
2023-11-15T11:59:35.937Z,2.42
2023-11-15T12:02:02.668Z,3.08
2023-11-15T12:04:29.431Z,3.50
2023-11-15T12:06:56.230Z,2.85
2023-11-15T12:09:24.460Z,3.28
2023-11-15T12:11:51.202Z,3.65
2023-11-15T12:14:17.859Z,2.85
2023-11-15T12:16:44.678Z,5.20
2023-11-15T12:19:13.748Z,3.17
2023-11-15T12:21:44.737Z,4.07
2023-11-15T12:24:12.218Z,3.45
2023-11-15T12:26:47.318Z,2.97
2023-11-15T12:29:27.542Z,2.60
2023-11-15T12:31:57.561Z,2.67
2023-11-15T12:34:25.772Z,3.90
2023-11-15T12:36:53.449Z,3.20
2023-11-15T12:39:22.851Z,2.72
2023-11-15T12:41:52.112Z,3.17
2023-11-15T12:44:18.900Z,3.47
2023-11-15T12:46:49.959Z,3.97
2023-11-15T12:49:23.408Z,4.28
2023-11-15T12:51:51.067Z,4.28
2023-11-15T12:54:18.028Z,4.20
2023-11-15T12:56:45.750Z,4.72
2023-11-15T12:59:15.779Z,4.65
2023-11-15T13:01:45.161Z,4.50
2023-11-15T13:04:13.701Z,4.10
2023-11-15T13:06:40.747Z,4.55
2023-11-15T13:09:13.261Z,4.75
2023-11-15T13:11:42.498Z,4.35
2023-11-15T13:14:09.512Z,4.57
2023-11-15T13:16:36.758Z,4.95
2023-11-15T13:19:04.988Z,5.35
2023-11-15T13:21:32.308Z,5.55
2023-11-15T13:23:58.994Z,6.35
2023-11-15T13:26:26.160Z,5.97
2023-11-15T13:28:54.410Z,6.32
2023-11-15T13:31:24.948Z,8.18
2023-11-15T13:33:53.696Z,6.88
2023-11-15T13:36:20.969Z,6.20
2023-11-15T13:38:48.508Z,6.32
2023-11-15T13:41:18.653Z,7.80
2023-11-15T13:43:48.917Z,6.32
2023-11-15T13:46:15.864Z,6.93
2023-11-15T13:48:43.156Z,6.50
2023-11-15T13:51:12.354Z,6.60
2023-11-15T13:53:40.132Z,6.50
2023-11-15T13:56:08.508Z,7.97
2023-11-15T13:58:37.113Z,6.47
2023-11-15T14:01:06.076Z,10.10
2023-11-15T14:03:34.045Z,7.70
2023-11-15T14:06:05.311Z,10.05
2023-11-15T14:08:47.121Z,7.97
2023-11-15T14:11:23.280Z,8.00
2023-11-15T14:13:50.062Z,6.45
2023-11-15T14:16:16.977Z,5.35
2023-11-15T14:18:48.224Z,10.90
2023-11-15T14:21:15.244Z,9.10
2023-11-15T14:23:42.030Z,8.57
2023-11-15T14:26:09.744Z,4.85
2023-11-15T14:28:36.731Z,3.45
2023-11-15T14:31:05.003Z,4.22
2023-11-15T14:33:32.729Z,3.05
2023-11-15T14:35:59.808Z,3.33
2023-11-15T14:38:26.543Z,3.28
2023-11-15T14:40:53.565Z,2.78
2023-11-15T14:43:20.583Z,2.53
2023-11-15T14:45:48.035Z,2.60
2023-11-15T14:48:15.011Z,2.50
2023-11-15T14:50:42.684Z,3.40
2023-11-15T14:53:19.351Z,3.00
2023-11-15T14:55:47.493Z,9.05
2023-11-15T14:58:19.445Z,2.90
2023-11-15T15:00:46.232Z,7.90
2023-11-15T15:03:13.790Z,8.93
2023-11-15T15:05:41.326Z,3.55
2023-11-15T15:08:15.201Z,5.28
2023-11-15T15:10:43.014Z,2.67
2023-11-15T15:13:10.761Z,4.10
2023-11-15T15:15:38.668Z,5.03
2023-11-15T15:18:06.678Z,3.88
2023-11-15T15:20:36.148Z,3.03
2023-11-15T15:23:03.860Z,4.28
2023-11-15T15:25:35.957Z,2.60
2023-11-15T15:28:03.585Z,2.95
2023-11-15T15:30:33.691Z,5.22
2023-11-15T15:33:02.162Z,4.15
2023-11-15T15:35:31.984Z,4.30
2023-11-15T15:37:59.028Z,2.97
2023-11-15T15:40:31.753Z,3.20
2023-11-15T15:42:58.779Z,1.88
2023-11-15T15:45:25.518Z,2.25
2023-11-15T15:47:52.440Z,3.00
2023-11-15T15:50:19.293Z,2.28
2023-11-15T15:52:46.022Z,2.78
2023-11-15T15:55:13.354Z,1.60
2023-11-15T15:57:40.191Z,1.60
2023-11-15T16:00:07.950Z,2.10
2023-11-15T16:02:37.443Z,2.20
2023-11-15T16:05:05.030Z,2.35
2023-11-15T16:07:32.378Z,4.10
2023-11-15T16:10:02.004Z,2.25
2023-11-15T16:12:29.795Z,2.35
2023-11-15T16:14:58.183Z,1.88
2023-11-15T16:17:26.378Z,4.30
2023-11-15T16:19:57.310Z,2.95
2023-11-15T16:22:25.413Z,8.43
2023-11-15T16:24:52.089Z,14.90
2023-11-15T16:27:22.496Z,10.05
2023-11-15T16:29:52.541Z,9.52
2023-11-15T16:32:19.620Z,8.93
2023-11-15T16:34:48.053Z,7.88
2023-11-15T16:37:15.007Z,6.03
2023-11-15T16:39:41.730Z,3.85
2023-11-15T16:42:09.276Z,5.50
2023-11-15T16:44:37.302Z,6.03
2023-11-15T16:47:05.130Z,4.70
2023-11-15T16:49:31.772Z,6.53
2023-11-15T16:52:00.583Z,8.80
2023-11-15T16:54:27.866Z,5.25
2023-11-15T16:56:54.814Z,3.85
2023-11-15T16:59:21.544Z,5.25
2023-11-15T17:01:48.385Z,3.47
2023-11-15T17:04:15.246Z,5.25
2023-11-15T17:06:42.557Z,3.30
2023-11-15T17:09:09.390Z,5.05
2023-11-15T17:11:36.259Z,17.92
2023-11-15T17:14:03.110Z,13.85
2023-11-15T17:16:29.779Z,16.38
2023-11-15T17:18:56.651Z,24.27
2023-11-15T17:21:26.194Z,12.52
2023-11-15T17:23:53.674Z,17.23
2023-11-15T17:26:21.104Z,15.93
2023-11-15T17:28:48.214Z,17.20
2023-11-15T17:31:14.998Z,5.53
2023-11-15T17:33:42.308Z,4.18
2023-11-15T17:36:10.095Z,4.07
2023-11-15T17:38:36.965Z,5.22
2023-11-15T17:41:04.950Z,3.20
2023-11-15T17:43:31.696Z,3.47
2023-11-15T17:45:58.495Z,2.67
2023-11-15T17:48:25.259Z,3.88
2023-11-15T17:50:51.968Z,3.25
2023-11-15T17:53:18.970Z,3.38
2023-11-15T17:55:45.788Z,3.53
2023-11-15T17:58:12.486Z,2.72
2023-11-15T18:00:39.636Z,4.55
2023-11-15T18:03:06.922Z,5.40
2023-11-15T18:05:33.846Z,3.13
2023-11-15T18:08:00.670Z,4.00
2023-11-15T18:10:29.910Z,3.40
2023-11-15T18:12:58.180Z,2.90
2023-11-15T18:15:25.116Z,4.22
2023-11-15T18:17:52.426Z,3.72
2023-11-15T18:20:22.378Z,2.30
2023-11-15T18:22:52.212Z,3.50
2023-11-15T18:25:20.181Z,2.70
2023-11-15T18:27:49.090Z,2.85
2023-11-15T18:30:17.740Z,2.33
2023-11-15T18:32:48.533Z,2.92
2023-11-15T18:35:15.381Z,2.80
2023-11-15T18:37:43.185Z,2.63
2023-11-15T18:40:13.581Z,3.20
2023-11-15T18:42:40.847Z,3.22
2023-11-15T18:45:12.130Z,7.00
2023-11-15T18:47:40.442Z,3.60
2023-11-15T18:50:12.119Z,5.97
2023-11-15T18:52:44.486Z,5.05
2023-11-15T18:55:13.792Z,4.32
2023-11-15T18:57:42.375Z,2.90
2023-11-15T19:00:14.841Z,3.05
2023-11-15T19:02:45.648Z,3.28
2023-11-15T19:05:17.395Z,7.78
2023-11-15T19:07:44.342Z,14.43
2023-11-15T19:10:18.035Z,4.63
2023-11-15T19:12:49.840Z,5.30
2023-11-15T19:15:17.113Z,3.53
2023-11-15T19:17:50.421Z,7.85
2023-11-15T19:20:19.390Z,3.33
2023-11-15T19:22:51.273Z,4.60
2023-11-15T19:25:18.026Z,4.00
2023-11-15T19:27:45.399Z,5.40
2023-11-15T19:30:13.448Z,4.78
2023-11-15T19:32:40.260Z,3.67
2023-11-15T19:35:09.862Z,2.72
2023-11-15T19:37:37.505Z,2.47
2023-11-15T19:40:10.174Z,4.65
2023-11-15T19:42:39.326Z,2.72
2023-11-15T19:45:08.440Z,3.55
2023-11-15T19:47:35.372Z,4.40
2023-11-15T19:50:02.118Z,4.65
2023-11-15T19:52:30.602Z,10.20
2023-11-15T19:54:58.266Z,3.45
2023-11-15T19:57:25.317Z,2.13
2023-11-15T19:59:52.542Z,2.72
2023-11-15T20:02:19.316Z,2.92
2023-11-15T20:04:46.108Z,2.50
2023-11-15T20:07:14.913Z,2.25
2023-11-15T20:09:41.618Z,3.17
2023-11-15T20:12:08.526Z,3.50
2023-11-15T20:14:35.213Z,3.28
2023-11-15T20:17:02.047Z,2.92
2023-11-15T20:19:29.624Z,2.65
2023-11-15T20:21:56.278Z,3.50
2023-11-15T20:24:23.078Z,2.63
2023-11-15T20:26:50.332Z,2.70
2023-11-15T20:29:20.094Z,2.88
2023-11-15T20:31:46.997Z,3.50
2023-11-15T20:34:14.148Z,3.33
2023-11-15T20:36:41.325Z,3.40
2023-11-15T20:39:21.638Z,2.65
2023-11-15T20:41:51.180Z,4.07
2023-11-15T20:44:18.271Z,3.60
2023-11-15T20:46:46.234Z,3.35
2023-11-15T20:49:13.754Z,3.00
2023-11-15T20:51:53.723Z,2.90
2023-11-15T20:54:24.939Z,4.28
2023-11-15T20:56:51.978Z,2.80
2023-11-15T20:59:18.616Z,2.63
2023-11-15T21:01:45.293Z,3.50
2023-11-15T21:04:13.861Z,3.80
2023-11-15T21:06:40.929Z,3.50
2023-11-15T21:09:10.667Z,3.55
2023-11-15T21:11:38.978Z,4.03
2023-11-15T21:14:06.900Z,3.67
2023-11-15T21:16:33.639Z,3.15
2023-11-15T21:19:00.437Z,3.80
2023-11-15T21:21:28.594Z,3.70
2023-11-15T21:23:56.871Z,4.72
2023-11-15T21:26:24.113Z,3.75
2023-11-15T21:28:54.502Z,3.17
2023-11-15T21:31:24.942Z,3.63
2023-11-15T21:33:51.690Z,4.05
2023-11-15T21:36:18.458Z,3.03
2023-11-15T21:38:45.587Z,3.90
2023-11-15T21:41:12.364Z,3.85
2023-11-15T21:43:40.233Z,3.45
2023-11-15T21:46:07.054Z,3.92
2023-11-15T21:48:35.378Z,3.65
2023-11-15T21:51:02.254Z,3.05
2023-11-15T21:53:32.427Z,3.63
2023-11-15T21:56:01.788Z,4.57
2023-11-15T21:58:28.552Z,4.43
2023-11-15T22:00:55.408Z,3.95
2023-11-15T22:03:24.927Z,4.40
2023-11-15T22:05:51.831Z,4.60
2023-11-15T22:08:18.994Z,4.95
2023-11-15T22:10:45.749Z,4.88
2023-11-15T22:13:12.733Z,4.18
2023-11-15T22:15:39.459Z,5.10
2023-11-15T22:18:07.236Z,5.03
2023-11-15T22:20:34.215Z,4.60
2023-11-15T22:23:00.985Z,5.00
2023-11-15T22:25:27.654Z,5.15
2023-11-15T22:27:54.313Z,15.82
2023-11-15T22:30:22.071Z,16.40
2023-11-15T22:32:48.842Z,7.05
2023-11-15T22:35:15.731Z,11.38
2023-11-15T22:37:43.033Z,5.80
2023-11-15T22:40:10.531Z,10.57
2023-11-15T22:42:38.169Z,7.20
2023-11-15T22:45:05.861Z,6.75
2023-11-15T22:47:32.551Z,8.55
2023-11-15T22:49:59.291Z,6.68
2023-11-15T22:52:25.959Z,5.75
2023-11-15T22:54:52.743Z,6.32
2023-11-15T22:57:19.491Z,6.57
2023-11-15T22:59:47.701Z,6.57
2023-11-15T23:02:16.274Z,8.15
2023-11-15T23:04:44.933Z,5.18
2023-11-15T23:07:11.876Z,5.05
2023-11-15T23:09:38.622Z,5.72
2023-11-15T23:12:05.857Z,5.50
2023-11-15T23:14:32.587Z,6.38
2023-11-15T23:16:59.276Z,6.25
2023-11-15T23:19:25.924Z,6.82
2023-11-15T23:21:59.413Z,8.15
2023-11-15T23:24:30.478Z,11.50
2023-11-15T23:27:00.951Z,5.43
2023-11-15T23:29:29.146Z,6.30
2023-11-15T23:31:57.088Z,5.40
2023-11-15T23:34:24.142Z,5.65
2023-11-15T23:36:51.537Z,5.22
2023-11-15T23:39:19.021Z,4.63
2023-11-15T23:41:45.788Z,4.55
2023-11-15T23:44:12.485Z,4.93
2023-11-15T23:46:39.291Z,5.38
2023-11-15T23:49:07.516Z,4.85
2023-11-15T23:51:34.316Z,4.47
2023-11-15T23:54:01.036Z,4.30
2023-11-15T23:56:27.730Z,4.43
2023-11-15T23:58:54.526Z,4.32
